Time;durP1;ratioP1;P1;durP2;ratioP2;P2;SDS_P1;SDS_P2;PMS_P1;PMS_P2;Temp;Humidity;BMP_temperature;BMP_pressure;BME280_temperature;BME280_humidity;BME280_pressure;Samples;Min_cycle;Max_cycle;Signal;HPM_P1;HPM_P2
2023/06/15 00:01:22;;;;;;;2.80;2.33;;;;;;;17.12;93.68;100130.47;5012536;28;20936;-61
2023/06/15 00:03:47;;;;;;;8.40;2.53;;;;;;;17.03;94.61;100134.63;5016867;28;20171;-61
2023/06/15 00:06:13;;;;;;;2.70;2.50;;;;;;;16.98;94.92;100131.59;5011314;28;20187;-61
2023/06/15 00:08:38;;;;;;;2.40;2.20;;;;;;;17.10;94.52;100133.19;5012168;28;20202;-61
2023/06/15 00:11:03;;;;;;;2.40;2.20;;;;;;;16.99;95.32;100131.47;5010014;28;20238;-61
2023/06/15 00:13:29;;;;;;;2.70;2.50;;;;;;;16.91;96.11;100133.84;5019279;28;20203;-61
2023/06/15 00:15:54;;;;;;;3.03;2.27;;;;;;;16.93;96.44;100139.75;5011223;28;20185;-60
2023/06/15 00:18:20;;;;;;;4.47;2.23;;;;;;;17.02;95.73;100128.63;5011242;28;20572;-59
2023/06/15 00:20:45;;;;;;;2.77;2.57;;;;;;;16.99;95.96;100136.66;5007283;28;20677;-60
2023/06/15 00:23:11;;;;;;;3.17;2.87;;;;;;;16.94;96.09;100131.84;5021299;28;20194;-61
2023/06/15 00:25:36;;;;;;;3.47;2.60;;;;;;;16.77;97.55;100133.16;5009948;28;20186;-60
2023/06/15 00:28:02;;;;;;;2.60;2.40;;;;;;;16.77;97.79;100137.56;5012033;28;20212;-61
2023/06/15 00:30:27;;;;;;;2.73;2.50;;;;;;;16.77;97.58;100138.38;5004904;28;20589;-60
2023/06/15 00:32:53;;;;;;;2.70;2.47;;;;;;;16.73;97.86;100138.72;5010453;28;20210;-60
2023/06/15 00:35:18;;;;;;;4.43;2.63;;;;;;;16.71;98.78;100136.25;5011120;28;20179;-61
2023/06/15 00:37:43;;;;;;;4.57;2.50;;;;;;;16.67;98.61;100136.63;5011940;28;20593;-61
2023/06/15 00:40:09;;;;;;;4.00;2.60;;;;;;;16.67;98.54;100142.66;5002543;28;20181;-60
2023/06/15 00:42:35;;;;;;;3.57;2.57;;;;;;;16.62;99.27;100147.38;5025768;28;20677;-60
2023/06/15 00:45:01;;;;;;;6.43;2.37;;;;;;;16.62;98.93;100152.56;5010993;28;20186;-61
2023/06/15 00:47:27;;;;;;;3.30;2.40;;;;;;;16.57;99.07;100152.94;5011857;28;20313;-61
2023/06/15 00:49:52;;;;;;;2.87;2.60;;;;;;;16.55;99.71;100157.41;5011471;28;20201;-61
2023/06/15 00:52:18;;;;;;;2.83;2.57;;;;;;;16.49;99.97;100157.91;5016901;28;20233;-60
2023/06/15 00:54:44;;;;;;;3.03;2.83;;;;;;;16.57;99.75;100162.50;5011662;28;20550;-61
2023/06/15 00:57:14;;;;;;;3.77;2.37;;;;;;;16.48;100.00;100164.03;5003900;28;20214;-61
2023/06/15 00:59:40;;;;;;;2.70;2.50;;;;;;;16.54;99.61;100173.13;5010373;28;20189;-62
2023/06/15 01:02:05;;;;;;;2.87;2.33;;;;;;;16.53;99.77;100167.09;5016614;28;21018;-60
2023/06/15 01:04:31;;;;;;;2.57;2.37;;;;;;;16.53;99.84;100166.28;5011186;28;20262;-60
2023/06/15 01:07:02;;;;;;;5.80;2.43;;;;;;;16.56;99.92;100168.63;5010963;28;20205;-61
2023/06/15 01:09:29;;;;;;;2.80;2.60;;;;;;;16.38;100.00;100170.91;5012177;28;20185;-61
2023/06/15 01:11:57;;;;;;;2.90;2.40;;;;;;;16.32;100.00;100171.38;5013591;28;20238;-60
2023/06/15 01:14:25;;;;;;;3.20;2.90;;;;;;;16.45;100.00;100159.91;5008623;28;20186;-61
2023/06/15 01:16:55;;;;;;;2.83;2.63;;;;;;;16.36;100.00;100163.25;5014738;28;20231;-61
2023/06/15 01:19:54;;;;;;;3.97;2.83;;;;;;;16.36;100.00;100157.22;5015286;28;20182;-60
2023/06/15 01:22:49;;;;;;;2.70;2.50;;;;;;;16.35;100.00;100153.81;5011571;28;20240;-61
2023/06/15 01:25:40;;;;;;;4.87;2.53;;;;;;;16.30;100.00;100164.53;5014560;28;20363;-61
2023/06/15 01:28:06;;;;;;;2.67;2.47;;;;;;;16.37;100.00;100164.06;5014982;28;20630;-61
2023/06/15 01:30:37;;;;;;;2.40;2.20;;;;;;;16.31;100.00;100170.56;5008319;28;20226;-61
2023/06/15 01:33:02;;;;;;;3.27;2.60;;;;;;;16.29;100.00;100160.28;5025492;28;20680;-61
2023/06/15 01:35:28;;;;;;;3.37;2.47;;;;;;;16.24;100.00;100161.59;5014345;28;20266;-61
2023/06/15 01:37:53;;;;;;;3.70;2.43;;;;;;;16.30;100.00;100159.34;5014447;28;20221;-61
2023/06/15 01:40:18;;;;;;;2.80;2.60;;;;;;;16.22;100.00;100159.09;5005357;28;20275;-61
2023/06/15 01:42:44;;;;;;;2.60;2.40;;;;;;;16.11;100.00;100156.50;5027572;28;20638;-61
2023/06/15 01:45:11;;;;;;;4.23;2.60;;;;;;;16.16;100.00;100158.75;5014319;28;20187;-61
2023/06/15 01:47:39;;;;;;;2.50;2.30;;;;;;;16.21;100.00;100154.03;5012732;28;20197;-60
2023/06/15 01:50:05;;;;;;;4.07;2.73;;;;;;;16.10;100.00;100162.66;5004730;28;20230;-61
2023/06/15 01:52:30;;;;;;;4.53;2.70;;;;;;;16.04;100.00;100160.53;5028714;28;20214;-61
2023/06/15 01:54:56;;;;;;;3.00;2.47;;;;;;;16.00;100.00;100162.56;5014686;28;20191;-61
2023/06/15 01:57:21;;;;;;;2.27;2.10;;;;;;;16.01;100.00;100161.59;5006671;28;20171;-61
2023/06/15 01:59:47;;;;;;;2.30;2.20;;;;;;;15.91;100.00;100158.03;5014493;28;20665;-61
2023/06/15 02:02:12;;;;;;;2.90;2.70;;;;;;;16.00;100.00;100159.97;5004524;28;20229;-61
2023/06/15 02:04:37;;;;;;;2.70;2.50;;;;;;;16.01;100.00;100155.59;5014251;28;20578;-61
2023/06/15 02:07:03;;;;;;;2.47;2.27;;;;;;;15.98;100.00;100156.66;5013792;28;20193;-61
2023/06/15 02:09:28;;;;;;;3.07;2.77;;;;;;;16.00;100.00;100159.97;5014505;28;20588;-61
2023/06/15 02:11:54;;;;;;;2.90;2.70;;;;;;;15.91;100.00;100153.69;5004438;28;20235;-61
2023/06/15 02:14:19;;;;;;;3.30;2.70;;;;;;;15.95;100.00;100157.72;5015141;28;20198;-61
2023/06/15 02:16:44;;;;;;;3.53;2.43;;;;;;;15.86;100.00;100147.19;5013103;28;20227;-62
2023/06/15 02:19:10;;;;;;;2.77;2.47;;;;;;;15.78;100.00;100158.13;5014136;28;20527;-61
2023/06/15 02:21:36;;;;;;;3.40;2.40;;;;;;;15.72;100.00;100159.41;5014907;28;20792;-62
2023/06/15 02:24:01;;;;;;;2.97;2.67;;;;;;;15.56;100.00;100158.91;5017416;28;20634;-61
2023/06/15 02:26:27;;;;;;;3.37;2.80;;;;;;;15.45;100.00;100159.72;5013095;28;20202;-62
2023/06/15 02:28:52;;;;;;;3.27;2.67;;;;;;;15.34;100.00;100155.31;5001328;28;20183;-62
2023/06/15 02:31:17;;;;;;;3.50;2.73;;;;;;;15.23;100.00;100163.03;5013300;28;20824;-61
2023/06/15 02:33:42;;;;;;;2.57;2.33;;;;;;;15.11;100.00;100162.19;5019264;28;20215;-61
2023/06/15 02:36:08;;;;;;;4.70;3.00;;;;;;;15.00;100.00;100168.16;5013138;28;20178;-62
2023/06/15 02:38:34;;;;;;;3.07;2.87;;;;;;;14.90;100.00;100170.56;5013259;28;20178;-61
2023/06/15 02:40:59;;;;;;;3.33;3.03;;;;;;;14.78;100.00;100169.66;5005308;28;20329;-61
2023/06/15 02:43:25;;;;;;;4.17;2.83;;;;;;;14.75;100.00;100171.66;5021382;28;20635;-61
2023/06/15 02:45:50;;;;;;;4.17;2.40;;;;;;;14.61;100.00;100164.81;5013055;28;20530;-62
2023/06/15 02:48:15;;;;;;;3.20;2.90;;;;;;;14.55;100.00;100167.84;5013216;28;20183;-61
2023/06/15 02:50:40;;;;;;;3.80;2.80;;;;;;;14.51;100.00;100162.91;5008276;28;20253;-62
2023/06/15 02:53:06;;;;;;;5.63;3.40;;;;;;;14.43;100.00;100162.59;5022964;28;20198;-61
2023/06/15 02:55:32;;;;;;;2.63;2.40;;;;;;;14.43;100.00;100164.38;5011039;28;20657;-60
2023/06/15 02:57:58;;;;;;;3.43;2.90;;;;;;;14.38;100.00;100169.03;5008176;28;20175;-61
2023/06/15 03:00:23;;;;;;;3.30;3.00;;;;;;;14.37;100.00;100175.97;4992568;28;20265;-60
2023/06/15 03:02:52;;;;;;;4.50;3.13;;;;;;;14.40;100.00;100174.94;5012342;28;20206;-62
2023/06/15 03:05:18;;;;;;;3.47;2.93;;;;;;;14.42;100.00;100175.66;5012274;28;20193;-61
2023/06/15 03:07:43;;;;;;;3.80;2.80;;;;;;;14.36;100.00;100174.31;5012954;28;20561;-60
2023/06/15 03:10:09;;;;;;;3.57;3.07;;;;;;;14.31;100.00;100179.81;5003767;28;20190;-61
2023/06/15 03:12:34;;;;;;;5.53;2.90;;;;;;;14.29;100.00;100186.84;5026986;28;20225;-60
2023/06/15 03:15:01;;;;;;;3.57;3.23;;;;;;;14.25;100.00;100179.41;5012343;28;20179;-61
2023/06/15 03:17:26;;;;;;;3.67;3.10;;;;;;;14.24;100.00;100182.91;5017704;28;20241;-61
2023/06/15 03:19:52;;;;;;;3.40;3.10;;;;;;;14.18;100.00;100189.34;5012659;28;20550;-61
2023/06/15 03:22:17;;;;;;;5.17;3.00;;;;;;;14.17;100.00;100185.91;5018013;28;20229;-61
2023/06/15 03:24:43;;;;;;;3.17;2.87;;;;;;;14.18;100.00;100187.56;5012737;28;20178;-61
2023/06/15 03:27:10;;;;;;;6.80;3.07;;;;;;;14.12;100.00;100190.59;5012329;28;20234;-61
2023/06/15 03:29:39;;;;;;;2.80;2.60;;;;;;;14.06;100.00;100187.59;5012569;28;20189;-61
2023/06/15 03:32:06;;;;;;;5.07;3.40;;;;;;;14.01;100.00;100196.47;4996642;28;20226;-61
2023/06/15 03:34:31;;;;;;;5.73;2.90;;;;;;;13.99;100.00;100197.50;5012169;28;20265;-60
2023/06/15 03:36:56;;;;;;;3.30;3.00;;;;;;;13.96;100.00;100198.56;5012344;28;20195;-62
2023/06/15 03:39:22;;;;;;;3.40;3.10;;;;;;;14.01;100.00;100195.66;5012445;28;20186;-60
2023/06/15 03:41:48;;;;;;;3.30;2.90;;;;;;;13.98;100.00;100199.28;5015952;28;20705;-61
2023/06/15 03:44:13;;;;;;;3.77;3.47;;;;;;;13.99;100.00;100200.94;5013898;28;20203;-62
2023/06/15 03:46:38;;;;;;;3.73;3.10;;;;;;;14.08;100.00;100204.66;5011809;28;20190;-61
2023/06/15 03:49:04;;;;;;;5.50;3.07;;;;;;;14.20;100.00;100201.25;5012279;28;20187;-61
2023/06/15 03:51:29;;;;;;;3.37;2.53;;;;;;;14.29;100.00;100202.38;5013161;28;20230;-61
2023/06/15 03:53:54;;;;;;;4.07;3.20;;;;;;;14.40;100.00;100200.81;5011151;28;20293;-61
2023/06/15 03:56:20;;;;;;;6.60;3.40;;;;;;;14.43;100.00;100200.59;5004358;28;20178;-61
2023/06/15 03:58:45;;;;;;;3.50;3.30;;;;;;;14.51;100.00;100200.88;5012029;28;20607;-61
2023/06/15 04:01:12;;;;;;;3.67;3.20;;;;;;;14.55;100.00;100206.66;5004131;28;20218;-60
2023/06/15 04:03:38;;;;;;;4.03;3.20;;;;;;;14.63;100.00;100205.19;5018048;28;20179;-60
2023/06/15 04:06:04;;;;;;;3.70;2.80;;;;;;;14.67;100.00;100209.28;5011656;28;20195;-62
2023/06/15 04:08:31;;;;;;;3.50;3.20;;;;;;;14.71;100.00;100206.47;5011764;28;20179;-62
2023/06/15 04:10:57;;;;;;;4.80;3.50;;;;;;;14.77;100.00;100206.03;5009183;28;20317;-62
2023/06/15 04:13:25;;;;;;;7.50;3.37;;;;;;;14.81;100.00;100210.91;5019973;28;20281;-61
2023/06/15 04:15:54;;;;;;;3.83;3.43;;;;;;;14.89;100.00;100207.75;5011466;28;20213;-61
2023/06/15 04:18:21;;;;;;;6.43;3.23;;;;;;;14.95;100.00;100207.31;5011268;28;20342;-61
2023/06/15 04:20:47;;;;;;;7.33;3.17;;;;;;;14.94;100.00;100208.25;5007349;28;20286;-62
2023/06/15 04:23:12;;;;;;;5.73;3.07;;;;;;;15.06;100.00;100208.31;5021293;28;20642;-60
2023/06/15 04:25:40;;;;;;;3.40;3.03;;;;;;;15.16;100.00;100211.91;5011438;28;20250;-61
2023/06/15 04:28:10;;;;;;;3.63;3.33;;;;;;;15.21;100.00;100220.19;5011612;28;20623;-60
2023/06/15 04:30:38;;;;;;;3.17;2.97;;;;;;;15.29;100.00;100225.63;5006016;28;20313;-61
2023/06/15 04:33:04;;;;;;;3.80;3.23;;;;;;;15.36;100.00;100220.00;5021921;28;20203;-61
2023/06/15 04:35:31;;;;;;;4.53;3.27;;;;;;;15.39;100.00;100218.00;5011458;28;20237;-61
2023/06/15 04:37:58;;;;;;;4.10;2.93;;;;;;;15.52;100.00;100224.88;5011499;28;20264;-61
2023/06/15 04:40:26;;;;;;;6.53;3.23;;;;;;;15.63;100.00;100232.72;5004262;28;20234;-61
2023/06/15 04:42:53;;;;;;;5.03;3.47;;;;;;;15.73;100.00;100235.47;5023750;28;20830;-61
2023/06/15 04:45:18;;;;;;;6.47;3.30;;;;;;;15.85;100.00;100231.97;5013093;28;20186;-61
2023/06/15 04:47:43;;;;;;;4.20;3.53;;;;;;;15.91;100.00;100238.47;5015417;28;20186;-61
2023/06/15 04:50:13;;;;;;;3.80;3.50;;;;;;;16.06;100.00;100239.91;5006471;28;20269;-61
2023/06/15 04:52:38;;;;;;;6.90;4.27;;;;;;;16.15;100.00;100235.81;5029165;28;20566;-60
2023/06/15 04:55:04;;;;;;;4.93;3.20;;;;;;;16.31;100.00;100240.66;5015074;28;20187;-61
2023/06/15 04:57:29;;;;;;;5.23;3.27;;;;;;;16.42;100.00;100238.06;5008199;28;20645;-61
2023/06/15 04:59:55;;;;;;;6.07;3.43;;;;;;;16.67;100.00;100240.50;5015483;28;20547;-61
2023/06/15 05:02:20;;;;;;;8.07;3.13;;;;;;;16.83;100.00;100234.94;5020720;28;20332;-61
2023/06/15 05:04:46;;;;;;;3.80;3.23;;;;;;;17.01;100.00;100232.69;5015575;28;20379;-60
2023/06/15 05:07:11;;;;;;;6.63;3.70;;;;;;;17.14;100.00;100240.31;5014869;28;20178;-61
2023/06/15 05:09:36;;;;;;;2.97;2.63;;;;;;;17.33;100.00;100244.84;5015543;28;20232;-60
2023/06/15 05:12:02;;;;;;;5.47;3.00;;;;;;;17.29;100.00;100241.72;5020386;28;20637;-60
2023/06/15 05:14:27;;;;;;;4.63;3.30;;;;;;;17.59;100.00;100242.75;5014930;28;20183;-60
2023/06/15 05:16:53;;;;;;;7.73;3.30;;;;;;;17.86;100.00;100241.41;5014461;28;20301;-61
2023/06/15 05:19:20;;;;;;;5.30;3.20;;;;;;;18.05;100.00;100238.97;5015015;28;20187;-61
2023/06/15 05:21:47;;;;;;;4.77;3.17;;;;;;;18.29;100.00;100231.81;5018157;28;20301;-61
2023/06/15 05:24:12;;;;;;;5.50;4.37;;;;;;;18.39;100.00;100238.72;5016830;28;20186;-62
2023/06/15 05:26:38;;;;;;;8.00;2.77;;;;;;;18.23;97.31;100247.00;5014230;28;20202;-61
2023/06/15 05:29:03;;;;;;;5.03;3.10;;;;;;;18.33;96.90;100241.84;5014948;28;20195;-61
2023/06/15 05:31:28;;;;;;;3.47;2.80;;;;;;;18.69;93.87;100244.00;5015985;28;20256;-61
2023/06/15 05:33:53;;;;;;;5.20;3.30;;;;;;;18.91;92.42;100242.19;5019175;28;20215;-62
2023/06/15 05:36:19;;;;;;;4.97;2.57;;;;;;;18.99;91.32;100242.31;5013889;28;20638;-61
2023/06/15 05:38:44;;;;;;;6.83;2.80;;;;;;;19.20;89.39;100244.81;5014811;28;20191;-61
2023/06/15 05:41:10;;;;;;;4.27;2.67;;;;;;;19.00;86.46;100242.22;5013445;28;20304;-61
2023/06/15 05:43:35;;;;;;;3.07;2.87;;;;;;;18.94;88.50;100247.97;5021353;28;20189;-61
2023/06/15 05:46:00;;;;;;;2.80;2.60;;;;;;;19.02;87.47;100245.47;5014294;28;20536;-61
2023/06/15 05:48:25;;;;;;;8.07;2.77;;;;;;;18.90;88.29;100246.53;5014658;28;20269;-61
2023/06/15 05:50:51;;;;;;;3.30;2.60;;;;;;;19.17;85.66;100256.34;5010649;28;20230;-61
2023/06/15 05:53:16;;;;;;;3.10;2.80;;;;;;;19.59;82.23;100257.88;5023598;28;20217;-61
2023/06/15 05:55:41;;;;;;;3.93;2.70;;;;;;;19.84;81.05;100258.28;5008869;28;20550;-62
2023/06/15 05:58:07;;;;;;;5.70;2.90;;;;;;;19.74;79.97;100265.28;5009741;28;20661;-61
2023/06/15 06:00:32;;;;;;;6.23;2.57;;;;;;;20.09;76.67;100262.06;5007567;28;20222;-61
2023/06/15 06:02:58;;;;;;;5.13;2.93;;;;;;;20.30;74.09;100266.25;5025886;28;20178;-61
2023/06/15 06:05:23;;;;;;;7.70;3.10;;;;;;;20.49;73.23;100267.97;5013879;28;20445;-60
2023/06/15 06:07:49;;;;;;;7.33;3.00;;;;;;;20.75;68.61;100260.34;5014441;28;20552;-60
2023/06/15 06:10:17;;;;;;;3.43;2.70;;;;;;;21.10;67.56;100268.38;5005450;28;20245;-61
2023/06/15 06:12:42;;;;;;;6.97;2.50;;;;;;;21.86;62.77;100261.03;5027490;28;20194;-62
2023/06/15 06:15:08;;;;;;;11.77;2.43;;;;;;;22.74;58.59;100267.88;5013385;28;20209;-62
2023/06/15 06:17:33;;;;;;;3.20;2.60;;;;;;;23.65;52.76;100270.63;5014246;28;20583;-61
2023/06/15 06:19:58;;;;;;;3.40;2.70;;;;;;;24.16;49.10;100284.38;5014227;28;20275;-61
2023/06/15 06:22:24;;;;;;;2.70;2.50;;;;;;;24.61;48.27;100274.19;5019345;28;20304;-61
2023/06/15 06:24:49;;;;;;;2.70;2.10;;;;;;;24.89;45.91;100280.81;5013904;28;20175;-61
2023/06/15 06:27:14;;;;;;;3.55;2.50;;;;;;;25.26;44.11;100285.34;5013705;28;20194;-61
2023/06/15 06:29:40;;;;;;;2.60;2.40;;;;;;;24.77;44.99;100281.22;5013910;28;20235;-61
2023/06/15 06:32:06;;;;;;;7.30;2.35;;;;;;;24.62;45.34;100270.56;5019325;28;20229;-61
2023/06/15 06:34:33;;;;;;;6.65;2.72;;;;;;;25.38;43.20;100287.59;5013626;28;20187;-61
2023/06/15 06:36:58;;;;;;;4.30;3.20;;;;;;;25.17;43.23;100282.94;5013566;28;20257;-61
2023/06/15 06:39:23;;;;;;;7.15;2.35;;;;;;;25.64;41.88;100291.66;5013707;28;20277;-61
2023/06/15 06:41:49;;;;;;;4.57;2.33;;;;;;;26.85;40.43;100288.91;5017294;28;20222;-61
2023/06/15 06:44:15;;;;;;;6.38;2.42;;;;;;;27.26;38.71;100293.56;5011898;28;20715;-61
2023/06/15 06:46:40;;;;;;;8.15;2.65;;;;;;;27.46;38.33;100304.38;5013342;28;20190;-61
2023/06/15 06:49:06;;;;;;;3.10;2.42;;;;;;;26.41;38.83;100296.69;5013483;28;20186;-61
2023/06/15 06:51:31;;;;;;;5.28;2.30;;;;;;;25.82;40.55;100296.63;5006512;28;20230;-61
2023/06/15 06:53:56;;;;;;;3.58;2.47;;;;;;;25.94;40.50;100300.47;5012845;28;20214;-61
2023/06/15 06:56:22;;;;;;;8.35;2.72;;;;;;;26.42;39.19;100298.31;5005599;28;20536;-61
2023/06/15 06:58:47;;;;;;;4.50;2.67;;;;;;;26.73;39.55;100297.28;5012990;28;20630;-61
2023/06/15 07:01:13;;;;;;;3.88;2.42;;;;;;;26.94;38.50;100289.59;4992948;28;20222;-62
2023/06/15 07:03:39;;;;;;;7.90;2.80;;;;;;;27.38;38.33;100292.06;5002084;28;20230;-62
2023/06/15 07:06:04;;;;;;;8.48;2.60;;;;;;;28.25;36.35;100299.03;5012850;28;20186;-62
2023/06/15 07:08:29;;;;;;;7.68;2.88;;;;;;;28.31;35.99;100304.34;5012453;28;20193;-62
2023/06/15 07:10:55;;;;;;;2.75;2.20;;;;;;;27.22;38.00;100305.53;5009954;28;20230;-61
2023/06/15 07:13:20;;;;;;;4.55;2.40;;;;;;;27.12;37.53;100302.38;5021119;28;20209;-62
2023/06/15 07:15:45;;;;;;;11.02;2.67;;;;;;;27.10;37.30;100301.75;5008317;28;20267;-62
2023/06/15 07:18:14;;;;;;;6.60;2.28;;;;;;;26.56;38.21;100301.13;5022452;28;20980;-60
2023/06/15 07:20:39;;;;;;;3.08;2.42;;;;;;;26.12;39.64;100294.84;5007539;28;20323;-60
2023/06/15 07:23:04;;;;;;;4.20;2.50;;;;;;;26.46;38.69;100293.50;5023359;28;20702;-61
2023/06/15 07:25:30;;;;;;;6.85;2.33;;;;;;;28.07;36.50;100300.38;5012190;28;20610;-61
2023/06/15 07:27:55;;;;;;;4.28;2.60;;;;;;;27.32;36.64;100300.75;5012427;28;20259;-60
2023/06/15 07:30:21;;;;;;;2.90;2.30;;;;;;;27.64;36.16;100303.91;4981200;28;20522;-60
2023/06/15 07:32:46;;;;;;;2.55;2.35;;;;;;;28.63;35.20;100307.34;5011700;28;20233;-60
2023/06/15 07:35:12;;;;;;;4.32;2.63;;;;;;;27.82;35.16;100308.72;5012236;28;21487;-60
2023/06/15 07:37:37;;;;;;;3.75;2.95;;;;;;;27.95;35.63;100307.97;5012935;28;20289;-62
2023/06/15 07:40:03;;;;;;;2.65;2.45;;;;;;;28.72;34.68;100308.03;5005876;28;20182;-62
2023/06/15 07:42:28;;;;;;;3.40;2.28;;;;;;;27.72;36.27;100302.94;5027454;28;20201;-62
2023/06/15 07:44:54;;;;;;;3.65;2.30;;;;;;;28.08;35.25;100307.28;5012313;28;20206;-62
2023/06/15 07:47:19;;;;;;;3.78;2.47;;;;;;;28.01;35.15;100317.78;5012268;28;20527;-61
2023/06/15 07:49:44;;;;;;;3.75;2.70;;;;;;;27.93;34.83;100315.28;5012237;28;20179;-61
2023/06/15 07:52:09;;;;;;;4.57;2.35;;;;;;;28.58;34.01;100298.34;5017424;28;20312;-61
2023/06/15 07:54:35;;;;;;;5.95;2.38;;;;;;;28.74;33.22;100310.47;5011941;28;20178;-61
2023/06/15 07:57:00;;;;;;;6.47;2.47;;;;;;;28.77;32.78;100310.88;5004581;28;20183;-61
2023/06/15 07:59:25;;;;;;;5.07;2.90;;;;;;;28.87;33.29;100313.16;5012298;28;20190;-61
2023/06/15 08:01:50;;;;;;;9.05;3.03;;;;;;;29.09;33.39;100303.22;5016060;28;20693;-61
2023/06/15 08:04:16;;;;;;;5.85;2.60;;;;;;;29.85;31.99;100298.56;5013576;28;20183;-61
2023/06/15 08:06:41;;;;;;;5.95;2.42;;;;;;;31.12;29.84;100301.81;5011588;28;20186;-62
2023/06/15 08:09:07;;;;;;;3.33;2.53;;;;;;;31.15;29.62;100310.19;5012233;28;20171;-61
2023/06/15 08:11:32;;;;;;;5.78;2.30;;;;;;;31.63;29.25;100305.31;5003987;28;20257;-61
2023/06/15 08:13:58;;;;;;;5.32;2.28;;;;;;;32.17;28.00;100308.28;5015511;28;20540;-61
2023/06/15 08:16:23;;;;;;;8.23;2.50;;;;;;;31.25;28.91;100316.84;5011306;28;20262;-62
2023/06/15 08:18:48;;;;;;;4.45;2.67;;;;;;;30.78;28.86;100306.50;5011827;28;20186;-61
2023/06/15 08:21:13;;;;;;;2.80;2.15;;;;;;;29.73;29.78;100309.00;5010710;28;20234;-61
2023/06/15 08:23:38;;;;;;;3.35;2.30;;;;;;;28.89;31.09;100310.31;5005148;28;20181;-61
2023/06/15 08:26:04;;;;;;;5.30;2.88;;;;;;;30.45;29.39;100307.44;5011244;28;20221;-62
2023/06/15 08:28:29;;;;;;;3.80;2.22;;;;;;;29.14;30.96;100302.63;5011537;28;20182;-60
2023/06/15 08:30:54;;;;;;;4.43;2.30;;;;;;;28.57;32.46;100305.50;5008503;28;20225;-61
2023/06/15 08:33:20;;;;;;;3.05;2.30;;;;;;;29.36;30.39;100307.78;5020185;28;20754;-62
2023/06/15 08:35:45;;;;;;;5.88;2.20;;;;;;;30.17;29.74;100305.91;5011447;28;20261;-60
2023/06/15 08:38:10;;;;;;;4.70;2.30;;;;;;;29.63;29.98;100306.78;5011807;28;20175;-61
2023/06/15 08:40:36;;;;;;;3.75;2.35;;;;;;;30.35;29.97;100311.38;5005882;28;20321;-61
2023/06/15 08:43:03;;;;;;;3.53;2.30;;;;;;;30.66;28.73;100309.81;5022269;28;20270;-61
2023/06/15 08:45:39;;;;;;;3.92;2.53;;;;;;;29.13;30.72;100306.28;5011516;28;20182;-61
2023/06/15 08:48:05;;;;;;;6.03;2.47;;;;;;;29.69;29.49;100305.13;5011981;28;20260;-61
2023/06/15 08:50:32;;;;;;;3.20;2.50;;;;;;;29.90;29.32;100300.66;5005150;28;20229;-61
2023/06/15 08:52:58;;;;;;;3.72;2.40;;;;;;;28.45;31.11;100302.59;5023084;28;20206;-61
2023/06/15 08:55:24;;;;;;;9.45;2.75;;;;;;;28.58;31.31;100299.19;5010103;28;20178;-62
2023/06/15 08:57:50;;;;;;;3.40;2.50;;;;;;;29.86;29.31;100297.56;5004207;28;20239;-61
2023/06/15 09:00:16;;;;;;;3.35;2.53;;;;;;;29.30;29.29;100294.31;5002989;28;20183;-61
2023/06/15 09:02:46;;;;;;;4.15;3.00;;;;;;;29.86;27.54;100299.41;5025164;28;20182;-61
2023/06/15 09:05:12;;;;;;;3.83;2.80;;;;;;;29.31;28.01;100308.38;5010880;28;20187;-61
2023/06/15 09:07:37;;;;;;;3.00;2.70;;;;;;;28.62;27.64;100311.00;5011609;28;20190;-61
2023/06/15 09:10:12;;;;;;;2.90;2.70;;;;;;;29.07;28.30;100297.31;5005122;28;20491;-62
2023/06/15 09:12:45;;;;;;;7.63;2.80;;;;;;;29.77;27.30;100294.31;5025132;28;20352;-60
2023/06/15 09:15:17;;;;;;;3.20;2.53;;;;;;;30.19;27.63;100299.38;5011020;28;20187;-60
2023/06/15 09:17:42;;;;;;;3.50;2.63;;;;;;;30.36;27.14;100307.66;5011397;28;20227;-60
2023/06/15 09:20:08;;;;;;;3.92;2.75;;;;;;;29.37;27.71;100309.41;5001928;28;20562;-62
2023/06/15 09:22:42;;;;;;;5.78;2.45;;;;;;;29.08;26.61;100296.28;5025556;28;20249;-61
2023/06/15 09:25:12;;;;;;;2.92;2.67;;;;;;;28.18;29.06;100306.91;5011054;28;20201;-61
2023/06/15 09:27:37;;;;;;;7.03;2.95;;;;;;;28.31;28.75;100308.84;5011523;28;20206;-61
2023/06/15 09:30:07;;;;;;;3.67;2.97;;;;;;;29.29;28.69;100294.53;5005031;28;20887;-62
2023/06/15 09:32:33;;;;;;;7.40;2.20;;;;;;;29.49;26.80;100293.72;5028948;28;20269;-62
2023/06/15 09:34:59;;;;;;;4.72;2.58;;;;;;;27.12;30.24;100295.28;5001409;28;20682;-63
2023/06/15 09:37:28;;;;;;;3.80;2.60;;;;;;;29.68;27.76;100290.22;5014941;28;20186;-61
2023/06/15 09:39:54;;;;;;;3.72;2.47;;;;;;;29.72;27.25;100291.47;5015016;28;20218;-61
2023/06/15 09:42:26;;;;;;;3.38;2.38;;;;;;;28.48;28.30;100301.38;5004062;28;20643;-61
2023/06/15 09:45:03;;;;;;;2.40;2.20;;;;;;;28.89;27.54;100287.31;5014713;28;20194;-61
2023/06/15 09:47:30;;;;;;;3.75;2.60;;;;;;;29.52;27.86;100283.53;5014521;28;20183;-62
2023/06/15 09:49:56;;;;;;;2.50;2.30;;;;;;;28.88;28.27;100288.31;5014852;28;20537;-61
2023/06/15 09:52:21;;;;;;;3.40;2.97;;;;;;;31.40;27.77;100288.13;5019523;28;20226;-61
2023/06/15 09:54:47;;;;;;;4.30;3.22;;;;;;;30.48;26.56;100289.25;5014543;28;20182;-61
2023/06/15 09:57:14;;;;;;;6.85;2.40;;;;;;;29.99;26.84;100294.09;5005256;28;20174;-61
2023/06/15 09:59:39;;;;;;;3.55;3.20;;;;;;;30.13;26.89;100296.72;5014569;28;20214;-61
2023/06/15 10:02:10;;;;;;;2.60;2.40;;;;;;;30.65;26.37;100288.78;5019501;28;20257;-61
2023/06/15 10:04:39;;;;;;;4.63;2.83;;;;;;;31.65;25.90;100285.47;5013074;28;20182;-61
2023/06/15 10:07:05;;;;;;;4.60;2.90;;;;;;;32.95;23.97;100295.28;5013887;28;20233;-60
2023/06/15 10:09:37;;;;;;;7.38;3.47;;;;;;;32.55;25.19;100280.63;5014332;28;20179;-60
2023/06/15 10:12:22;;;;;;;3.00;2.80;;;;;;;31.40;25.39;100293.44;5005838;28;20241;-61
2023/06/15 10:15:07;;;;;;;3.45;2.65;;;;;;;31.38;25.59;100283.03;5014385;28;20186;-61
2023/06/15 10:17:34;;;;;;;7.88;3.53;;;;;;;30.38;27.04;100280.94;5012565;28;20595;-60
2023/06/15 10:20:07;;;;;;;6.28;3.20;;;;;;;29.15;28.18;100283.09;5013909;28;20209;-60
2023/06/15 10:22:34;;;;;;;5.72;2.92;;;;;;;27.95;29.87;100283.38;5002743;28;20625;-61
2023/06/15 10:25:00;;;;;;;3.97;3.22;;;;;;;28.49;29.34;100295.06;5011083;28;20197;-62
2023/06/15 10:27:26;;;;;;;7.50;3.25;;;;;;;28.92;28.80;100276.31;5013857;28;20210;-60
2023/06/15 10:30:54;;;;;;;5.93;3.15;;;;;;;30.92;28.52;100270.88;5006137;28;20191;-61
2023/06/15 10:33:44;;;;;;;6.60;2.83;;;;;;;32.50;25.20;100278.63;4964475;28;20418;-62
2023/06/15 10:36:22;;;;;;;4.45;3.00;;;;;;;31.99;25.43;100279.81;4991371;28;20246;-61
2023/06/15 10:38:57;;;;;;;3.38;2.95;;;;;;;31.09;26.50;100289.00;4991944;28;20285;-61
2023/06/15 10:41:23;;;;;;;3.20;2.83;;;;;;;30.03;28.16;100281.22;4981465;28;20254;-61
2023/06/15 10:44:01;;;;;;;7.55;2.88;;;;;;;28.71;30.13;100276.47;4991135;28;20322;-61
2023/06/15 10:46:35;;;;;;;5.25;3.00;;;;;;;28.79;29.83;100270.97;4990899;28;20188;-60
2023/06/15 10:49:07;;;;;;;3.47;2.58;;;;;;;28.34;29.73;100277.53;4991729;28;20195;-61
2023/06/15 10:51:52;;;;;;;5.50;3.50;;;;;;;26.65;32.40;100273.63;4981387;28;20246;-61
2023/06/15 10:54:26;;;;;;;4.80;2.97;;;;;;;26.25;33.46;100258.13;4991052;28;20539;-62
2023/06/15 10:56:55;;;;;;;5.90;3.10;;;;;;;25.86;34.24;100263.63;4974927;28;20191;-61
2023/06/15 10:59:57;;;;;;;5.85;2.92;;;;;;;25.64;34.77;100253.00;4975230;28;20570;-61
2023/06/15 11:02:28;;;;;;;5.72;3.42;;;;;;;25.42;34.93;100244.94;4911097;29;20229;-59
2023/06/15 11:05:00;;;;;;;3.63;3.00;;;;;;;25.64;34.54;100253.00;4946329;28;20200;-62
2023/06/15 11:07:48;;;;;;;8.27;3.05;;;;;;;25.94;31.79;100261.72;4958938;28;20234;-60
2023/06/15 11:10:15;;;;;;;6.03;2.85;;;;;;;25.85;33.14;100254.09;4944139;28;20287;-60
2023/06/15 11:12:43;;;;;;;4.88;3.25;;;;;;;25.73;33.77;100251.91;4957462;28;20204;-60
2023/06/15 11:15:13;;;;;;;3.08;2.78;;;;;;;25.56;33.89;100245.16;4948185;28;20187;-61
2023/06/15 11:18:03;;;;;;;5.13;3.03;;;;;;;24.94;34.73;100250.38;4971419;28;20228;-60
2023/06/15 11:20:37;;;;;;;4.20;3.10;;;;;;;25.02;36.24;100243.41;4949083;28;20252;-61
2023/06/15 11:23:09;;;;;;;6.60;3.10;;;;;;;25.09;36.09;100247.81;4965018;28;20227;-61